createdAt,value
2022-09-18T00:00:55.489Z,7.00
2022-09-18T00:03:44.533Z,7.00
2022-09-18T00:06:36.387Z,7.00
2022-09-18T00:09:25.141Z,7.00
2022-09-18T00:12:13.198Z,7.00
2022-09-18T00:15:00.623Z,7.00
2022-09-18T00:17:48.061Z,6.90
2022-09-18T00:20:36.260Z,6.80
2022-09-18T00:23:25.252Z,6.80
2022-09-18T00:26:15.227Z,6.70
2022-09-18T00:29:03.422Z,6.70
2022-09-18T00:31:51.541Z,6.60
2022-09-18T00:34:41.698Z,6.60
2022-09-18T00:37:29.774Z,6.50
2022-09-18T00:40:19.052Z,6.50
2022-09-18T00:43:22.092Z,6.40
2022-09-18T00:46:17.200Z,6.40
2022-09-18T00:49:12.106Z,6.30
2022-09-18T00:52:02.225Z,6.30
2022-09-18T00:54:53.046Z,6.20
2022-09-18T00:57:48.384Z,6.20
2022-09-18T01:00:36.216Z,6.10
2022-09-18T01:03:23.798Z,6.10
2022-09-18T01:06:16.986Z,6.10
2022-09-18T01:09:25.127Z,6.00
2022-09-18T01:12:26.878Z,5.90
2022-09-18T01:15:25.362Z,5.90
2022-09-18T01:18:27.566Z,5.80
2022-09-18T01:21:17.334Z,5.80
2022-09-18T01:24:35.225Z,5.80
2022-09-18T01:27:32.055Z,5.70
2022-09-18T01:30:21.833Z,5.70
2022-09-18T01:33:14.338Z,5.70
2022-09-18T01:36:08.686Z,5.60
2022-09-18T01:39:04.339Z,5.70
2022-09-18T01:41:53.449Z,5.60
2022-09-18T01:44:45.252Z,5.60
2022-09-18T01:47:39.310Z,5.70
2022-09-18T01:50:29.637Z,5.70
2022-09-18T01:53:22.874Z,5.90
2022-09-18T01:56:14.880Z,6.10
2022-09-18T01:59:09.157Z,6.60
2022-09-18T02:02:09.783Z,6.90
2022-09-18T02:05:03.697Z,7.10
2022-09-18T02:08:00.269Z,7.40
2022-09-18T02:10:54.675Z,7.60
2022-09-18T02:13:46.367Z,7.80
2022-09-18T02:16:38.776Z,7.90
2022-09-18T02:19:30.014Z,8.10
2022-09-18T02:22:22.524Z,8.20
2022-09-18T02:25:14.381Z,8.20
2022-09-18T02:28:03.069Z,8.30
2022-09-18T02:30:51.036Z,8.40
2022-09-18T02:33:39.332Z,8.50
2022-09-18T02:36:44.785Z,8.50
2022-09-18T02:39:47.809Z,8.60
2022-09-18T02:42:44.961Z,8.70
2022-09-18T02:45:41.036Z,8.70
2022-09-18T02:48:55.721Z,8.80
2022-09-18T02:51:47.808Z,8.80
2022-09-18T02:54:42.848Z,8.90
2022-09-18T02:57:36.823Z,8.90
2022-09-18T03:00:28.613Z,9.00
2022-09-18T03:03:19.978Z,9.00
2022-09-18T03:06:15.628Z,8.90
2022-09-18T03:09:03.536Z,9.00
2022-09-18T03:11:54.057Z,9.00
2022-09-18T03:14:42.587Z,9.00
2022-09-18T03:17:30.119Z,9.00
2022-09-18T03:20:18.208Z,9.10
2022-09-18T03:23:06.377Z,9.20
2022-09-18T03:25:54.066Z,9.20
2022-09-18T03:28:44.322Z,9.20
2022-09-18T03:31:33.786Z,9.20
2022-09-18T03:34:22.508Z,9.30
2022-09-18T03:37:10.366Z,9.30
2022-09-18T03:39:58.422Z,9.30
2022-09-18T03:42:46.627Z,9.30
2022-09-18T03:45:36.184Z,9.30
2022-09-18T03:48:24.060Z,9.30
2022-09-18T03:51:13.160Z,9.30
2022-09-18T03:54:01.355Z,9.30
2022-09-18T03:57:08.570Z,9.30
2022-09-18T04:00:15.281Z,9.40
2022-09-18T04:03:04.663Z,9.40
2022-09-18T04:05:52.301Z,9.50
2022-09-18T04:09:00.269Z,9.50
2022-09-18T04:11:57.700Z,9.60
2022-09-18T04:14:45.326Z,9.60
2022-09-18T04:17:33.896Z,9.60
2022-09-18T04:20:23.041Z,9.60
2022-09-18T04:23:12.243Z,9.60
2022-09-18T04:26:01.782Z,9.60
2022-09-18T04:28:52.115Z,9.60
2022-09-18T04:31:40.169Z,9.60
2022-09-18T04:34:32.965Z,9.60
2022-09-18T04:37:22.318Z,9.60
2022-09-18T04:40:13.097Z,9.50
2022-09-18T04:43:01.864Z,9.50
2022-09-18T04:45:50.233Z,9.50
2022-09-18T04:48:38.605Z,9.40
2022-09-18T04:51:27.679Z,9.40
2022-09-18T04:54:17.121Z,9.30
2022-09-18T04:57:06.195Z,9.30
2022-09-18T04:59:53.683Z,9.30
2022-09-18T05:02:41.451Z,9.30
2022-09-18T05:05:30.029Z,9.30
2022-09-18T05:08:18.356Z,9.30
2022-09-18T05:11:10.316Z,9.40
2022-09-18T05:13:59.576Z,9.40
2022-09-18T05:16:50.770Z,9.40
2022-09-18T05:19:46.150Z,9.50
2022-09-18T05:22:47.057Z,9.50
2022-09-18T05:25:40.770Z,9.50
2022-09-18T05:28:30.592Z,9.50
2022-09-18T05:31:19.832Z,9.60
2022-09-18T05:34:08.506Z,9.50
2022-09-18T05:36:56.656Z,9.60
2022-09-18T05:39:44.162Z,9.60
2022-09-18T05:42:32.766Z,9.60
2022-09-18T05:45:22.972Z,9.60
2022-09-18T05:48:12.562Z,9.60
2022-09-18T05:51:00.251Z,9.70
2022-09-18T05:53:50.390Z,9.70
2022-09-18T05:56:44.887Z,9.80
2022-09-18T05:59:32.838Z,9.90
2022-09-18T06:02:23.198Z,10.00
2022-09-18T06:05:22.012Z,10.10
2022-09-18T06:08:12.066Z,10.10
2022-09-18T06:11:02.362Z,10.20
2022-09-18T06:13:52.772Z,10.20
2022-09-18T06:16:42.431Z,10.30
2022-09-18T06:19:34.828Z,10.40
2022-09-18T06:22:22.860Z,10.40
2022-09-18T06:25:11.296Z,10.40
2022-09-18T06:28:02.385Z,10.50
2022-09-18T06:30:50.454Z,10.50
2022-09-18T06:33:38.126Z,10.60
2022-09-18T06:36:27.485Z,10.70
2022-09-18T06:39:23.217Z,10.70
2022-09-18T06:42:17.265Z,10.70
2022-09-18T06:45:24.115Z,10.80
2022-09-18T06:48:12.780Z,10.90
2022-09-18T06:51:00.930Z,10.90
2022-09-18T06:53:55.369Z,11.00
2022-09-18T06:56:43.288Z,11.00
2022-09-18T06:59:33.336Z,11.10
2022-09-18T07:02:21.561Z,11.10
2022-09-18T07:05:19.390Z,11.00
2022-09-18T07:08:07.612Z,10.90
2022-09-18T07:11:02.001Z,10.90
2022-09-18T07:13:50.099Z,10.80
2022-09-18T07:16:37.897Z,10.80
2022-09-18T07:19:25.705Z,10.80
2022-09-18T07:22:13.800Z,10.80
2022-09-18T07:25:05.441Z,10.80
2022-09-18T07:27:55.206Z,10.80
2022-09-18T07:30:46.551Z,10.80
2022-09-18T07:33:35.852Z,10.80
2022-09-18T07:36:24.042Z,10.90
2022-09-18T07:39:11.691Z,10.90
2022-09-18T07:42:19.305Z,10.90
2022-09-18T07:45:13.359Z,10.90
2022-09-18T07:48:03.069Z,11.00
2022-09-18T07:50:51.358Z,11.10
2022-09-18T07:53:39.347Z,11.20
2022-09-18T07:56:28.343Z,11.30
2022-09-18T07:59:16.472Z,11.20
2022-09-18T08:02:06.510Z,11.30
2022-09-18T08:04:55.985Z,11.40
2022-09-18T08:07:55.945Z,11.60
2022-09-18T08:11:03.587Z,11.80
2022-09-18T08:13:57.240Z,12.10
2022-09-18T08:17:05.981Z,12.30
2022-09-18T08:19:59.972Z,12.50
2022-09-18T08:23:04.730Z,12.70
2022-09-18T08:25:52.586Z,12.90
2022-09-18T08:28:40.742Z,13.10
2022-09-18T08:31:28.594Z,13.40
2022-09-18T08:34:19.453Z,13.70
2022-09-18T08:37:07.382Z,13.90
2022-09-18T08:40:15.339Z,13.80
2022-09-18T08:43:16.964Z,13.50
2022-09-18T08:46:14.431Z,13.20
2022-09-18T08:49:16.358Z,13.00
2022-09-18T08:52:13.301Z,12.90
2022-09-18T08:55:05.199Z,12.80
2022-09-18T08:58:30.769Z,12.80
2022-09-18T09:01:20.547Z,12.50
2022-09-18T09:04:21.777Z,12.30
2022-09-18T09:07:23.920Z,12.10
2022-09-18T09:10:27.461Z,12.00
2022-09-18T09:13:35.507Z,12.00
2022-09-18T09:16:31.333Z,11.90
2022-09-18T09:19:29.063Z,11.90
2022-09-18T09:22:21.944Z,11.90
2022-09-18T09:25:20.703Z,11.90
2022-09-18T09:28:26.160Z,12.00
2022-09-18T09:31:37.049Z,12.00
2022-09-18T09:34:49.568Z,12.00
2022-09-18T09:38:04.485Z,11.90
2022-09-18T09:40:55.441Z,11.90
2022-09-18T09:43:50.206Z,11.80
2022-09-18T09:46:50.673Z,11.80
2022-09-18T09:49:48.409Z,11.70
2022-09-18T09:52:38.616Z,11.70
2022-09-18T09:55:37.200Z,11.70
2022-09-18T09:58:41.438Z,11.70
2022-09-18T10:01:33.495Z,11.70
2022-09-18T10:04:33.928Z,11.60
2022-09-18T10:07:28.780Z,11.60
2022-09-18T10:10:27.321Z,11.60
2022-09-18T10:13:20.290Z,11.80
2022-09-18T10:16:14.557Z,11.70
2022-09-18T10:19:04.656Z,11.70
2022-09-18T10:21:55.369Z,11.70
2022-09-18T10:24:55.258Z,11.70
2022-09-18T10:27:44.329Z,11.60
2022-09-18T10:30:35.728Z,11.50
2022-09-18T10:33:33.863Z,11.50
2022-09-18T10:36:29.666Z,11.50
2022-09-18T10:39:31.743Z,11.50
2022-09-18T10:42:28.741Z,11.50
2022-09-18T10:45:29.154Z,11.60
2022-09-18T10:48:28.901Z,11.60
2022-09-18T10:51:20.954Z,11.70
2022-09-18T10:54:18.058Z,11.70
2022-09-18T10:57:31.625Z,11.70
2022-09-18T11:00:37.206Z,11.60
2022-09-18T11:03:39.575Z,11.40
2022-09-18T11:06:31.670Z,11.30
2022-09-18T11:09:33.111Z,11.30
2022-09-18T11:12:24.479Z,11.40
2022-09-18T11:15:18.208Z,11.50
2022-09-18T11:18:15.925Z,11.60
2022-09-18T11:21:08.439Z,11.60
2022-09-18T11:24:04.350Z,11.60
2022-09-18T11:26:54.048Z,11.60
2022-09-18T11:29:42.414Z,11.70
2022-09-18T11:32:36.106Z,11.80
2022-09-18T11:35:29.166Z,11.90
2022-09-18T11:38:20.412Z,11.90
2022-09-18T11:41:11.645Z,12.00
2022-09-18T11:44:12.345Z,12.20
2022-09-18T11:47:30.041Z,12.30
2022-09-18T11:50:23.839Z,12.40
2022-09-18T11:53:18.904Z,12.50
2022-09-18T11:56:14.335Z,12.50
2022-09-18T11:59:07.217Z,12.60
2022-09-18T12:02:00.111Z,12.50
2022-09-18T12:04:53.159Z,12.40
2022-09-18T12:07:49.524Z,12.40
2022-09-18T12:10:50.592Z,12.50
2022-09-18T12:13:53.892Z,12.50
2022-09-18T12:16:47.207Z,12.70
2022-09-18T12:19:41.317Z,12.80
2022-09-18T12:22:42.729Z,13.10
2022-09-18T12:25:38.358Z,13.20
2022-09-18T12:28:46.690Z,13.40
2022-09-18T12:31:43.817Z,13.50
2022-09-18T12:34:39.187Z,13.60
2022-09-18T12:37:42.573Z,13.60
2022-09-18T12:41:02.478Z,13.70
2022-09-18T12:44:17.410Z,13.80
2022-09-18T12:47:28.771Z,13.90
2022-09-18T12:50:30.922Z,14.10
2022-09-18T12:53:30.687Z,14.20
2022-09-18T12:56:36.689Z,14.20
2022-09-18T12:59:42.535Z,14.30
2022-09-18T13:02:51.473Z,14.30
2022-09-18T13:05:43.741Z,14.40
2022-09-18T13:08:36.373Z,14.30
2022-09-18T13:11:40.669Z,14.20
2022-09-18T13:14:33.752Z,14.30
2022-09-18T13:17:25.631Z,14.70
2022-09-18T13:20:25.345Z,15.00
2022-09-18T13:23:19.500Z,15.40
2022-09-18T13:26:11.833Z,16.30
2022-09-18T13:28:59.560Z,16.90
2022-09-18T13:31:54.263Z,17.20
2022-09-18T13:34:49.490Z,16.70
2022-09-18T13:37:41.209Z,16.10
2022-09-18T13:40:37.149Z,15.50
2022-09-18T13:43:38.871Z,15.10
2022-09-18T13:46:39.760Z,14.90
2022-09-18T13:49:30.948Z,15.10
2022-09-18T13:52:43.989Z,15.70
2022-09-18T13:55:48.629Z,16.30
2022-09-18T13:59:00.551Z,16.20
2022-09-18T14:02:23.295Z,15.90
2022-09-18T14:05:31.395Z,15.80
2022-09-18T14:08:44.323Z,15.70
2022-09-18T14:11:32.258Z,16.00
2022-09-18T14:14:25.399Z,16.20
2022-09-18T14:17:16.247Z,16.50
2022-09-18T14:20:09.603Z,16.50
2022-09-18T14:22:57.246Z,16.80
2022-09-18T14:25:48.684Z,17.30
2022-09-18T14:28:38.080Z,17.60
2022-09-18T14:31:29.666Z,18.00
2022-09-18T14:34:22.493Z,18.10
2022-09-18T14:37:28.429Z,18.20
2022-09-18T14:40:21.299Z,18.20
2022-09-18T14:43:18.327Z,18.20
2022-09-18T14:46:07.276Z,18.40
2022-09-18T14:48:55.550Z,18.60
2022-09-18T14:52:03.082Z,19.00
2022-09-18T14:54:54.132Z,19.40
2022-09-18T14:57:47.449Z,19.40
2022-09-18T15:00:39.352Z,19.20
2022-09-18T15:03:29.969Z,18.50
2022-09-18T15:06:21.570Z,17.80
2022-09-18T15:09:12.949Z,17.10
2022-09-18T15:12:03.238Z,16.40
2022-09-18T15:14:52.148Z,16.10
2022-09-18T15:17:41.347Z,15.70
2022-09-18T15:20:30.204Z,15.40
2022-09-18T15:23:26.421Z,15.10
2022-09-18T15:26:16.487Z,15.10
2022-09-18T15:29:06.451Z,15.10
2022-09-18T15:31:56.210Z,15.00
2022-09-18T15:34:49.881Z,14.70
2022-09-18T15:37:41.120Z,14.40
2022-09-18T15:40:31.837Z,13.90
2022-09-18T15:43:43.792Z,13.70
2022-09-18T15:46:33.151Z,13.40
2022-09-18T15:49:31.698Z,13.30
2022-09-18T15:52:39.505Z,13.10
2022-09-18T15:55:30.277Z,13.00
2022-09-18T15:58:35.192Z,12.90
2022-09-18T16:01:26.466Z,12.90
2022-09-18T16:04:20.754Z,12.80
2022-09-18T16:07:20.524Z,12.70
2022-09-18T16:10:45.643Z,12.60
2022-09-18T16:13:37.430Z,12.40
2022-09-18T16:16:26.809Z,12.30
2022-09-18T16:19:14.645Z,12.30
2022-09-18T16:22:11.071Z,12.30
2022-09-18T16:24:59.861Z,12.30
2022-09-18T16:27:50.713Z,12.20
2022-09-18T16:30:38.747Z,12.00
2022-09-18T16:33:28.132Z,11.80
2022-09-18T16:36:24.142Z,11.60
2022-09-18T16:39:14.018Z,11.50
2022-09-18T16:42:13.991Z,11.40
2022-09-18T16:45:03.542Z,11.20
2022-09-18T16:47:52.776Z,11.10
2022-09-18T16:50:41.765Z,10.90
2022-09-18T16:53:29.808Z,10.80
2022-09-18T16:56:22.911Z,10.70
2022-09-18T16:59:11.085Z,10.50
2022-09-18T17:02:04.484Z,10.30
2022-09-18T17:04:52.807Z,10.20
2022-09-18T17:07:42.698Z,10.10
2022-09-18T17:10:30.458Z,10.00
2022-09-18T17:13:18.104Z,10.00
2022-09-18T17:16:06.055Z,10.00
2022-09-18T17:18:55.621Z,10.10
2022-09-18T17:21:43.696Z,10.10
2022-09-18T17:24:31.771Z,10.20
2022-09-18T17:27:19.521Z,10.30
2022-09-18T17:30:11.697Z,10.30
2022-09-18T17:32:59.231Z,10.30
2022-09-18T17:35:48.549Z,10.30
2022-09-18T17:38:36.859Z,10.20
2022-09-18T17:41:24.993Z,10.10
2022-09-18T17:44:12.817Z,10.00
2022-09-18T17:47:00.516Z,9.90
2022-09-18T17:49:48.774Z,9.70
2022-09-18T17:52:38.382Z,9.60
2022-09-18T17:55:26.368Z,9.50
2022-09-18T17:58:14.171Z,9.40
2022-09-18T18:01:02.060Z,9.30
2022-09-18T18:03:50.268Z,9.20
2022-09-18T18:06:38.200Z,9.10
2022-09-18T18:09:27.290Z,9.00
2022-09-18T18:12:15.055Z,8.90
2022-09-18T18:15:03.149Z,8.80
2022-09-18T18:17:52.113Z,8.70
2022-09-18T18:20:40.345Z,8.60
2022-09-18T18:23:28.360Z,8.60
2022-09-18T18:26:18.004Z,8.60
2022-09-18T18:29:06.533Z,8.70
2022-09-18T18:31:55.404Z,8.80
2022-09-18T18:34:43.196Z,8.80
2022-09-18T18:37:33.378Z,8.90
2022-09-18T18:40:22.065Z,9.00
2022-09-18T18:43:14.265Z,9.10
2022-09-18T18:46:03.201Z,9.20
2022-09-18T18:49:01.848Z,9.30
2022-09-18T18:51:51.971Z,9.40
2022-09-18T18:54:40.642Z,9.40
2022-09-18T18:57:28.297Z,9.50
2022-09-18T19:00:17.692Z,9.50
2022-09-18T19:03:05.834Z,9.50
2022-09-18T19:05:54.310Z,9.50
2022-09-18T19:08:46.455Z,9.50
2022-09-18T19:11:38.156Z,9.50
2022-09-18T19:14:28.115Z,9.60
2022-09-18T19:17:17.409Z,9.60
2022-09-18T19:20:05.847Z,9.70
2022-09-18T19:22:54.920Z,9.70
2022-09-18T19:25:42.814Z,9.80
2022-09-18T19:28:31.479Z,9.80
2022-09-18T19:31:20.310Z,9.90
2022-09-18T19:34:12.627Z,9.90
2022-09-18T19:37:00.759Z,9.90
2022-09-18T19:39:50.249Z,9.90
2022-09-18T19:42:38.036Z,9.90
2022-09-18T19:45:30.120Z,9.90
2022-09-18T19:48:25.071Z,9.90
2022-09-18T19:51:13.966Z,10.00
2022-09-18T19:54:01.497Z,10.00
2022-09-18T19:56:50.406Z,10.00
2022-09-18T19:59:39.233Z,10.00
2022-09-18T20:02:28.005Z,10.00
2022-09-18T20:05:15.828Z,10.00
2022-09-18T20:08:06.927Z,10.00
2022-09-18T20:10:55.710Z,10.00
2022-09-18T20:13:43.352Z,9.90
2022-09-18T20:16:31.129Z,10.00
2022-09-18T20:19:18.618Z,9.90
2022-09-18T20:22:06.651Z,10.00
2022-09-18T20:24:56.221Z,9.90
2022-09-18T20:27:44.120Z,9.90
2022-09-18T20:30:31.838Z,9.80
2022-09-18T20:33:19.432Z,9.80
2022-09-18T20:36:09.414Z,9.80
2022-09-18T20:38:58.158Z,9.80
2022-09-18T20:41:47.698Z,9.70
2022-09-18T20:44:36.095Z,9.70
2022-09-18T20:47:23.748Z,9.70
2022-09-18T20:50:15.331Z,9.70
2022-09-18T20:53:06.178Z,9.60
2022-09-18T20:55:58.462Z,9.60
2022-09-18T20:58:48.770Z,9.60
2022-09-18T21:01:38.053Z,9.60
2022-09-18T21:04:25.514Z,9.60
2022-09-18T21:07:13.444Z,9.50
2022-09-18T21:10:01.758Z,9.50
2022-09-18T21:12:49.534Z,9.50
2022-09-18T21:15:38.480Z,9.50
2022-09-18T21:18:26.270Z,9.50
2022-09-18T21:21:15.024Z,9.50
2022-09-18T21:24:04.239Z,9.40
2022-09-18T21:26:51.875Z,9.40
2022-09-18T21:29:40.746Z,9.40
2022-09-18T21:32:30.885Z,9.30
2022-09-18T21:35:19.846Z,9.30
2022-09-18T21:38:12.307Z,9.20
2022-09-18T21:41:03.402Z,9.20
2022-09-18T21:43:54.041Z,9.20
2022-09-18T21:46:42.067Z,9.10
2022-09-18T21:49:32.029Z,9.20
2022-09-18T21:52:19.418Z,9.20
2022-09-18T21:55:07.733Z,9.20
2022-09-18T21:57:55.887Z,9.20
2022-09-18T22:00:43.571Z,9.20
2022-09-18T22:03:31.215Z,9.20
2022-09-18T22:06:21.597Z,9.10
2022-09-18T22:09:10.832Z,9.10
2022-09-18T22:11:59.527Z,9.10
2022-09-18T22:14:47.277Z,9.00
2022-09-18T22:17:34.416Z,8.90
2022-09-18T22:20:21.938Z,9.00
2022-09-18T22:23:10.603Z,8.90
2022-09-18T22:26:01.678Z,8.90
2022-09-18T22:28:50.491Z,8.90
2022-09-18T22:31:39.390Z,8.90
2022-09-18T22:34:29.496Z,8.90
2022-09-18T22:37:17.388Z,8.90
2022-09-18T22:40:08.122Z,8.90
2022-09-18T22:42:56.768Z,8.80
2022-09-18T22:45:44.541Z,8.70
2022-09-18T22:48:33.940Z,8.80
2022-09-18T22:51:24.435Z,8.70
2022-09-18T22:54:13.396Z,8.70
2022-09-18T22:57:03.064Z,8.80
2022-09-18T22:59:51.011Z,8.70
2022-09-18T23:02:38.969Z,8.80
2022-09-18T23:05:27.181Z,8.80
2022-09-18T23:08:15.133Z,8.70
2022-09-18T23:11:05.158Z,8.70
2022-09-18T23:13:56.085Z,8.70
2022-09-18T23:16:44.212Z,8.70
2022-09-18T23:19:34.228Z,8.60
2022-09-18T23:22:22.566Z,8.60
2022-09-18T23:25:11.146Z,8.60
2022-09-18T23:27:58.872Z,8.60
2022-09-18T23:30:47.834Z,8.50
2022-09-18T23:33:35.496Z,8.50
2022-09-18T23:36:24.865Z,8.40
2022-09-18T23:39:14.912Z,8.40
2022-09-18T23:42:05.878Z,8.40
2022-09-18T23:44:53.715Z,8.40
2022-09-18T23:47:42.457Z,8.30
2022-09-18T23:50:31.177Z,8.20
2022-09-18T23:53:19.602Z,8.10
2022-09-18T23:56:09.291Z,8.00
2022-09-18T23:58:59.301Z,8.00
